Armadale, Australia
Current Conditions -  °F | °C
As of 5:30 PM on Sunday 23 Nov 2014 (Local Time) from YPJT Reporting Station
Clear Clear  
Wind Chill: 68°   Ceiling: Unl
Heat Index: 68°   Visibility: 6mi
Dew Point: 45°   Wind: 13mph
Humidity: 43%   Direction: 210°SSW
Pressure: 30.03"   Gusts: NA
Location:  32.15°S, 116°E
Report Text: YPJT 230930Z AUTO 21011KT 9999 // NCD 20/07 Q1017
Loading
Personal Weather Stations






























Interactive Weather Map New forecast layout! Learn more

10-Day Weather Forecast

Advertisements
Track Severe Weather on mobile